• Join FlightAware (Why Join?)
  • Login
  • US Flag 
Rudolph Flight #1: Arrived! 
08:03AM EST


 

Airport Tracker/Info


-or-


 

Live Flight TrackerFlight Track Log ✈ ASQ6115 ✈ 10-Jun-2013 ✈ KMFE - KIAH

Flight Track Log - Related Links

Times and Time Zones

All times are in EDT time to prevent confusion due to time zone crossing. See the ASQ6115 flight status page for this flight to view local times or setup timezone preferences in your user account.

Time Position Orientation Groundspeed Altitude Reporting Facility
EDT Latitude Longitude Course Direction KTS MPH feet Rate Location/Type
04:15PM 26.2000 -98.1722 49° Northeast 206 237 2,900  Level Houston Center
04:16PM 26.2575 -98.1158 41° Northeast 248 285 5,100 2,160 Climbing Houston Center
04:17PM 26.4300 -98.1100 24° Northeast  Level FlightAware Approximate
04:17PM 26.3139 -98.0550 44° Northeast 268 308 7,500  Level Houston Center
04:18PM 26.4952 -98.0774 24° Northeast  Level FlightAware Approximate
04:18PM 26.3703 -97.9906 46° Northeast 279 321 9,400  Level Houston Center
04:19PM 26.5606 -98.0453 22° Northeast  Level FlightAware Approximate
04:19PM 26.4286 -97.9231 46° Northeast 299 344 10,700  Level Houston Center
04:20PM 26.5011 -97.8428 45° Northeast 335 386 11,600 840 Climbing Houston Center
04:21PM 26.5731 -97.7608 46° Northeast 363 418 12,500 780 Climbing Houston Center
04:22PM 26.6469 -97.6739 46° Northeast 400 460 13,300 780 Climbing Houston Center
04:23PM 26.7450 -97.6108 30° Northeast 381 438 14,200 840 Climbing Houston Center
04:24PM 26.8531 -97.5947 North 390 449 15,100 840 Climbing Houston Center
04:25PM 26.9728 -97.5772 North 390 449 16,000 720 Climbing Houston Center
04:26PM 27.0800 -97.5636 North 394 453 16,700 720 Climbing Houston Center
04:27PM 27.1800 -97.5503 North 391 450 17,500 720 Climbing Houston Center
04:28PM 27.2878 -97.5342 North 387 445 18,300 840 Climbing Houston Center
04:29PM 27.4164 -97.5153 North 389 448 19,300 840 Climbing Houston Center
04:30PM 27.5247 -97.4994 North 391 450 20,100 1,200 Climbing Houston Center
04:31PM 27.6311 -97.4836 North 389 448 21,900 1,980 Climbing Houston Center
04:32PM 27.7297 -97.4703 North 363 418 24,300 1,560 Climbing Houston Center
04:33PM 27.8117 -97.4183 29° Northeast 347 399 25,200 780 Climbing Houston Center
04:34PM 27.8978 -97.3586 32° Northeast 358 412 26,000 780 Climbing Houston Center
04:35PM 27.9931 -97.2906 32° Northeast 375 432 26,900 480 Climbing Houston Center
04:36PM 28.1186 -97.2364 21° North 406 467 27,000  Climbing Houston Center
04:38PM 28.2336 -97.1994 16° North 426 490 27,000  Level Houston Center
04:39PM 28.3531 -97.1611 16° North 442 509 27,000 -240 Level Houston Center
04:40PM 28.4767 -97.1256 14° North 454 522 26,600 -720 Descending Houston Center
04:41PM 28.6044 -97.0936 12° North 466 536 25,600 -1,020 Descending Houston Center
04:42PM 28.7317 -97.0725 North 461 531 24,600 -840 Descending Houston Center
04:43PM 28.8764 -97.0469 North 443 510 23,900 -360 Descending Houston Center
04:44PM 28.9808 -97.0019 21° North 420 483 23,900  Level Houston Center
04:45PM 29.0611 -96.9114 45° Northeast 408 470 24,000 -300 Climbing Houston Center
04:46PM 29.1328 -96.8056 52° Northeast 423 487 23,300 -1,020 Descending Houston Center
04:47PM 29.2025 -96.6978 53° Northeast 428 493 22,000 -1,680 Descending Houston Center
04:48PM 29.2833 -96.5747 53° Northeast 409 471 19,900 -2,040 Descending Houston Center
04:49PM 29.3483 -96.4747 53° Northeast 397 457 17,800 -2,520 Descending Houston Center
04:50PM 29.4031 -96.3911 53° Northeast 392 451 15,400 -2,940 Descending Houston Center
04:50PM 29.4131 -96.3744 55° Northeast 393 452 14,800 -3,120 Descending Houston Center
04:51PM 29.4750 -96.2783 53° Northeast 380 437 11,400 -2,400 Descending Houston Center
04:52PM 29.5342 -96.1858 54° Northeast 365 420 9,900 -1,020 Descending Houston Center
04:53PM 29.5811 -96.0931 60° Northeast 280 322 9,400 -540 Descending Houston Center
04:54PM 29.6253 -96.0086 59° Northeast 289 333 8,900 -360 Descending Houston Center
04:55PM 29.6714 -95.9458 50° Northeast 297 342 8,800 -720 Descending Houston Center
04:56PM 29.7433 -95.9064 25° Northeast 289 333 7,600 -900 Descending Houston Center
04:57PM 29.8114 -95.8672 27° Northeast 243 280 7,000 -300 Descending Houston Center
04:58PM 29.8753 -95.8311 26° Northeast 255 293 7,000 -180 Level Houston Center
04:58PM 29.8872 -95.8214 35° Northeast 248 285 6,800 -1,080 Descending Houston Center
04:59PM 29.9283 -95.7669 49° Northeast 237 273 5,800 -1,080 Descending Houston Center
05:00PM 29.9653 -95.7097 53° Northeast 227 261 4,800 -840 Descending Houston Center
05:01PM 29.9847 -95.6328 74° East 230 265 4,000 -660 Descending Houston Center
05:02PM 29.9922 -95.5642 83° East 224 258 3,500 -600 Descending Houston Center